sensor_id;sensor_type;location;lat;lon;timestamp;temperature;humidity
54788;DHT22;59598;48.112;16.280;2023-05-07T00:00:50;11.60;99.90
54788;DHT22;59598;48.112;16.280;2023-05-07T00:03:28;11.60;99.90
54788;DHT22;59598;48.112;16.280;2023-05-07T00:06:02;11.60;99.90
54788;DHT22;59598;48.112;16.280;2023-05-07T00:08:34;11.60;99.90
54788;DHT22;59598;48.112;16.280;2023-05-07T00:11:08;11.50;99.90
54788;DHT22;59598;48.112;16.280;2023-05-07T00:13:44;11.50;99.90
54788;DHT22;59598;48.112;16.280;2023-05-07T00:16:15;11.40;99.90
54788;DHT22;59598;48.112;16.280;2023-05-07T00:18:51;11.40;99.90
54788;DHT22;59598;48.112;16.280;2023-05-07T00:21:24;11.30;99.90
54788;DHT22;59598;48.112;16.280;2023-05-07T00:24:01;11.20;99.90
54788;DHT22;59598;48.112;16.280;2023-05-07T00:26:38;11.20;99.90
54788;DHT22;59598;48.112;16.280;2023-05-07T00:29:11;11.20;99.90
54788;DHT22;59598;48.112;16.280;2023-05-07T00:31:45;11.20;99.90
54788;DHT22;59598;48.112;16.280;2023-05-07T00:34:20;11.20;99.90
54788;DHT22;59598;48.112;16.280;2023-05-07T00:36:54;11.10;99.90
54788;DHT22;59598;48.112;16.280;2023-05-07T00:39:36;11.10;99.90
54788;DHT22;59598;48.112;16.280;2023-05-07T00:42:10;11.10;99.90
54788;DHT22;59598;48.112;16.280;2023-05-07T00:44:46;11.10;99.90
54788;DHT22;59598;48.112;16.280;2023-05-07T00:47:18;11.10;99.90
54788;DHT22;59598;48.112;16.280;2023-05-07T00:49:49;11.00;99.90
54788;DHT22;59598;48.112;16.280;2023-05-07T00:52:26;11.00;99.90
54788;DHT22;59598;48.112;16.280;2023-05-07T00:55:05;11.00;99.90
54788;DHT22;59598;48.112;16.280;2023-05-07T00:57:40;11.00;99.90
54788;DHT22;59598;48.112;16.280;2023-05-07T01:00:13;10.90;99.90
54788;DHT22;59598;48.112;16.280;2023-05-07T01:02:45;11.00;99.90
54788;DHT22;59598;48.112;16.280;2023-05-07T01:05:21;10.90;99.90
54788;DHT22;59598;48.112;16.280;2023-05-07T01:08:08;10.90;99.90
54788;DHT22;59598;48.112;16.280;2023-05-07T01:10:42;10.90;99.90
54788;DHT22;59598;48.112;16.280;2023-05-07T01:13:17;10.90;99.90
54788;DHT22;59598;48.112;16.280;2023-05-07T01:15:53;10.80;99.90
54788;DHT22;59598;48.112;16.280;2023-05-07T01:18:25;10.80;99.90
54788;DHT22;59598;48.112;16.280;2023-05-07T01:20:59;10.80;99.90
54788;DHT22;59598;48.112;16.280;2023-05-07T01:23:31;10.80;99.90
54788;DHT22;59598;48.112;16.280;2023-05-07T01:26:11;10.80;99.90
54788;DHT22;59598;48.112;16.280;2023-05-07T01:28:47;10.70;99.90
54788;DHT22;59598;48.112;16.280;2023-05-07T01:31:21;10.80;99.90
54788;DHT22;59598;48.112;16.280;2023-05-07T01:33:57;10.80;99.90
54788;DHT22;59598;48.112;16.280;2023-05-07T01:36:31;10.80;99.90
54788;DHT22;59598;48.112;16.280;2023-05-07T01:39:04;10.80;99.90
54788;DHT22;59598;48.112;16.280;2023-05-07T01:41:39;10.70;99.90
54788;DHT22;59598;48.112;16.280;2023-05-07T01:44:15;10.60;99.90
54788;DHT22;59598;48.112;16.280;2023-05-07T01:46:48;10.70;99.90
54788;DHT22;59598;48.112;16.280;2023-05-07T01:49:21;10.70;99.90
54788;DHT22;59598;48.112;16.280;2023-05-07T01:51:52;10.60;99.90
54788;DHT22;59598;48.112;16.280;2023-05-07T01:54:25;10.70;99.90
54788;DHT22;59598;48.112;16.280;2023-05-07T01:57:02;10.70;99.90
54788;DHT22;59598;48.112;16.280;2023-05-07T01:59:36;10.70;99.90
54788;DHT22;59598;48.112;16.280;2023-05-07T02:02:11;10.70;99.90
54788;DHT22;59598;48.112;16.280;2023-05-07T02:04:45;10.60;99.90
54788;DHT22;59598;48.112;16.280;2023-05-07T02:07:22;10.60;99.90
54788;DHT22;59598;48.112;16.280;2023-05-07T02:09:59;10.60;99.90
54788;DHT22;59598;48.112;16.280;2023-05-07T02:12:30;10.60;99.90
54788;DHT22;59598;48.112;16.280;2023-05-07T02:15:03;10.60;99.90
54788;DHT22;59598;48.112;16.280;2023-05-07T02:18:07;10.50;99.90
54788;DHT22;59598;48.112;16.280;2023-05-07T02:20:43;10.40;99.90
54788;DHT22;59598;48.112;16.280;2023-05-07T02:23:15;10.40;99.90
54788;DHT22;59598;48.112;16.280;2023-05-07T02:25:49;10.30;99.90
54788;DHT22;59598;48.112;16.280;2023-05-07T02:28:23;10.40;99.90
54788;DHT22;59598;48.112;16.280;2023-05-07T02:30:54;10.30;99.90
54788;DHT22;59598;48.112;16.280;2023-05-07T02:33:27;10.30;99.90
54788;DHT22;59598;48.112;16.280;2023-05-07T02:36:14;10.30;99.90
54788;DHT22;59598;48.112;16.280;2023-05-07T02:38:50;10.30;99.90
54788;DHT22;59598;48.112;16.280;2023-05-07T02:41:29;10.40;99.90
54788;DHT22;59598;48.112;16.280;2023-05-07T02:44:06;10.50;99.90
54788;DHT22;59598;48.112;16.280;2023-05-07T02:46:41;10.60;99.90
54788;DHT22;59598;48.112;16.280;2023-05-07T02:49:12;10.70;99.90
54788;DHT22;59598;48.112;16.280;2023-05-07T02:51:46;10.80;99.90
54788;DHT22;59598;48.112;16.280;2023-05-07T02:54:18;10.80;99.90
54788;DHT22;59598;48.112;16.280;2023-05-07T02:56:49;10.80;99.90
54788;DHT22;59598;48.112;16.280;2023-05-07T02:59:26;10.90;99.90
54788;DHT22;59598;48.112;16.280;2023-05-07T03:02:05;11.00;99.90
54788;DHT22;59598;48.112;16.280;2023-05-07T03:04:39;11.10;99.90
54788;DHT22;59598;48.112;16.280;2023-05-07T03:07:12;11.10;99.90
54788;DHT22;59598;48.112;16.280;2023-05-07T03:09:45;11.10;99.90
54788;DHT22;59598;48.112;16.280;2023-05-07T03:12:20;11.00;99.90
54788;DHT22;59598;48.112;16.280;2023-05-07T03:14:51;11.00;99.90
54788;DHT22;59598;48.112;16.280;2023-05-07T03:17:26;11.10;99.90
54788;DHT22;59598;48.112;16.280;2023-05-07T03:20:00;11.20;99.90
54788;DHT22;59598;48.112;16.280;2023-05-07T03:22:34;11.30;99.90
54788;DHT22;59598;48.112;16.280;2023-05-07T03:25:12;11.40;99.90
54788;DHT22;59598;48.112;16.280;2023-05-07T03:27:45;11.50;99.90
54788;DHT22;59598;48.112;16.280;2023-05-07T03:30:17;11.60;99.90
54788;DHT22;59598;48.112;16.280;2023-05-07T03:32:55;11.60;99.90
54788;DHT22;59598;48.112;16.280;2023-05-07T03:35:32;11.70;99.90
54788;DHT22;59598;48.112;16.280;2023-05-07T03:38:07;11.60;99.90
54788;DHT22;59598;48.112;16.280;2023-05-07T03:40:38;11.70;99.90
54788;DHT22;59598;48.112;16.280;2023-05-07T03:43:10;11.70;99.90
54788;DHT22;59598;48.112;16.280;2023-05-07T03:45:48;11.70;99.90
54788;DHT22;59598;48.112;16.280;2023-05-07T03:48:22;11.80;99.90
54788;DHT22;59598;48.112;16.280;2023-05-07T03:50:57;11.70;99.90
54788;DHT22;59598;48.112;16.280;2023-05-07T03:53:29;11.70;99.90
54788;DHT22;59598;48.112;16.280;2023-05-07T03:56:01;11.70;99.90
54788;DHT22;59598;48.112;16.280;2023-05-07T03:58:33;11.80;99.90
54788;DHT22;59598;48.112;16.280;2023-05-07T04:01:10;11.80;99.90
54788;DHT22;59598;48.112;16.280;2023-05-07T04:03:42;11.80;99.90
54788;DHT22;59598;48.112;16.280;2023-05-07T04:06:17;11.90;99.90
54788;DHT22;59598;48.112;16.280;2023-05-07T04:08:52;12.00;99.90
54788;DHT22;59598;48.112;16.280;2023-05-07T04:11:24;12.10;99.90
54788;DHT22;59598;48.112;16.280;2023-05-07T04:14:00;12.20;99.90
54788;DHT22;59598;48.112;16.280;2023-05-07T04:16:35;12.40;99.90
54788;DHT22;59598;48.112;16.280;2023-05-07T04:19:07;12.40;99.90
54788;DHT22;59598;48.112;16.280;2023-05-07T04:21:41;12.50;99.90
54788;DHT22;59598;48.112;16.280;2023-05-07T04:24:15;12.60;99.90
54788;DHT22;59598;48.112;16.280;2023-05-07T04:27:00;12.80;99.90
54788;DHT22;59598;48.112;16.280;2023-05-07T04:29:35;12.90;99.90
54788;DHT22;59598;48.112;16.280;2023-05-07T04:32:09;12.90;99.90
54788;DHT22;59598;48.112;16.280;2023-05-07T04:34:44;13.00;99.90
54788;DHT22;59598;48.112;16.280;2023-05-07T04:37:18;13.10;99.90
54788;DHT22;59598;48.112;16.280;2023-05-07T04:39:54;13.20;99.90
54788;DHT22;59598;48.112;16.280;2023-05-07T04:42:28;13.30;99.90
54788;DHT22;59598;48.112;16.280;2023-05-07T04:45:01;13.40;99.90
54788;DHT22;59598;48.112;16.280;2023-05-07T04:47:33;13.40;99.90
54788;DHT22;59598;48.112;16.280;2023-05-07T04:50:07;13.40;99.90
54788;DHT22;59598;48.112;16.280;2023-05-07T04:52:42;13.50;99.90
54788;DHT22;59598;48.112;16.280;2023-05-07T04:55:14;13.40;99.90
54788;DHT22;59598;48.112;16.280;2023-05-07T04:57:47;13.60;99.90
54788;DHT22;59598;48.112;16.280;2023-05-07T05:00:23;13.70;99.90
54788;DHT22;59598;48.112;16.280;2023-05-07T05:02:56;13.80;99.90
54788;DHT22;59598;48.112;16.280;2023-05-07T05:05:30;13.80;99.90
54788;DHT22;59598;48.112;16.280;2023-05-07T05:08:04;13.80;99.90
54788;DHT22;59598;48.112;16.280;2023-05-07T05:10:36;13.90;99.90
54788;DHT22;59598;48.112;16.280;2023-05-07T05:13:07;13.90;99.90
54788;DHT22;59598;48.112;16.280;2023-05-07T05:15:43;14.00;99.90
54788;DHT22;59598;48.112;16.280;2023-05-07T05:18:15;14.10;99.90
54788;DHT22;59598;48.112;16.280;2023-05-07T05:20:47;14.40;99.90
54788;DHT22;59598;48.112;16.280;2023-05-07T05:23:20;14.60;99.90
54788;DHT22;59598;48.112;16.280;2023-05-07T05:25:58;14.90;99.90
54788;DHT22;59598;48.112;16.280;2023-05-07T05:28:32;14.90;99.90
54788;DHT22;59598;48.112;16.280;2023-05-07T05:31:06;14.80;99.90
54788;DHT22;59598;48.112;16.280;2023-05-07T05:33:41;14.70;99.90
54788;DHT22;59598;48.112;16.280;2023-05-07T05:36:13;14.60;99.90
54788;DHT22;59598;48.112;16.280;2023-05-07T05:38:47;14.40;99.90
54788;DHT22;59598;48.112;16.280;2023-05-07T05:41:18;14.40;99.90
54788;DHT22;59598;48.112;16.280;2023-05-07T05:43:52;14.30;99.90
54788;DHT22;59598;48.112;16.280;2023-05-07T05:46:24;14.20;99.90
54788;DHT22;59598;48.112;16.280;2023-05-07T05:48:56;14.20;99.90
54788;DHT22;59598;48.112;16.280;2023-05-07T05:51:30;14.30;99.90
54788;DHT22;59598;48.112;16.280;2023-05-07T05:54:04;14.40;99.90
54788;DHT22;59598;48.112;16.280;2023-05-07T05:56:43;14.30;99.90
54788;DHT22;59598;48.112;16.280;2023-05-07T05:59:22;14.20;99.90
54788;DHT22;59598;48.112;16.280;2023-05-07T06:01:59;14.00;99.90
54788;DHT22;59598;48.112;16.280;2023-05-07T06:04:32;14.00;99.90
54788;DHT22;59598;48.112;16.280;2023-05-07T06:07:06;14.00;99.90
54788;DHT22;59598;48.112;16.280;2023-05-07T06:09:38;14.10;99.90
54788;DHT22;59598;48.112;16.280;2023-05-07T06:12:12;14.20;99.90
54788;DHT22;59598;48.112;16.280;2023-05-07T06:14:47;14.40;99.90
54788;DHT22;59598;48.112;16.280;2023-05-07T06:17:22;14.50;99.90
54788;DHT22;59598;48.112;16.280;2023-05-07T06:19:53;14.40;99.90
54788;DHT22;59598;48.112;16.280;2023-05-07T06:22:27;14.50;99.90
54788;DHT22;59598;48.112;16.280;2023-05-07T06:24:59;14.60;99.90
54788;DHT22;59598;48.112;16.280;2023-05-07T06:27:34;14.90;99.90
54788;DHT22;59598;48.112;16.280;2023-05-07T06:30:06;15.10;99.90
54788;DHT22;59598;48.112;16.280;2023-05-07T06:32:41;15.00;99.90
54788;DHT22;59598;48.112;16.280;2023-05-07T06:35:12;14.90;99.90
54788;DHT22;59598;48.112;16.280;2023-05-07T06:37:49;14.90;99.90
54788;DHT22;59598;48.112;16.280;2023-05-07T06:40:29;15.10;99.90
54788;DHT22;59598;48.112;16.280;2023-05-07T06:43:10;15.60;99.90
54788;DHT22;59598;48.112;16.280;2023-05-07T06:45:43;15.90;90.50
54788;DHT22;59598;48.112;16.280;2023-05-07T06:48:15;16.10;32.60
54788;DHT22;59598;48.112;16.280;2023-05-07T06:50:47;16.10;94.80
54788;DHT22;59598;48.112;16.280;2023-05-07T06:53:18;16.00;91.50
54788;DHT22;59598;48.112;16.280;2023-05-07T06:55:50;16.20;57.40
54788;DHT22;59598;48.112;16.280;2023-05-07T06:58:24;16.00;13.50
54788;DHT22;59598;48.112;16.280;2023-05-07T07:00:58;15.90;99.90
54788;DHT22;59598;48.112;16.280;2023-05-07T07:03:35;16.00;34.50
54788;DHT22;59598;48.112;16.280;2023-05-07T07:06:11;16.50;92.70
54788;DHT22;59598;48.112;16.280;2023-05-07T07:08:48;17.00;1.00
54788;DHT22;59598;48.112;16.280;2023-05-07T07:11:26;17.20;1.00
54788;DHT22;59598;48.112;16.280;2023-05-07T07:14:00;17.20;1.00
54788;DHT22;59598;48.112;16.280;2023-05-07T07:16:38;16.70;1.00
54788;DHT22;59598;48.112;16.280;2023-05-07T07:19:10;17.00;1.00
54788;DHT22;59598;48.112;16.280;2023-05-07T07:21:46;17.00;1.00
54788;DHT22;59598;48.112;16.280;2023-05-07T07:24:17;16.70;1.00
54788;DHT22;59598;48.112;16.280;2023-05-07T07:26:52;16.80;1.00
54788;DHT22;59598;48.112;16.280;2023-05-07T07:29:23;16.70;1.00
54788;DHT22;59598;48.112;16.280;2023-05-07T07:31:57;16.70;1.00
54788;DHT22;59598;48.112;16.280;2023-05-07T07:34:31;16.70;1.00
54788;DHT22;59598;48.112;16.280;2023-05-07T07:37:03;17.10;1.00
54788;DHT22;59598;48.112;16.280;2023-05-07T07:39:37;17.40;1.00
54788;DHT22;59598;48.112;16.280;2023-05-07T07:42:13;17.50;1.00
54788;DHT22;59598;48.112;16.280;2023-05-07T07:44:44;17.70;1.00
54788;DHT22;59598;48.112;16.280;2023-05-07T07:47:19;18.20;1.00
54788;DHT22;59598;48.112;16.280;2023-05-07T07:49:51;18.20;1.00
54788;DHT22;59598;48.112;16.280;2023-05-07T07:52:25;17.60;1.00
54788;DHT22;59598;48.112;16.280;2023-05-07T07:55:00;17.20;1.00
54788;DHT22;59598;48.112;16.280;2023-05-07T07:57:36;17.20;1.00
54788;DHT22;59598;48.112;16.280;2023-05-07T08:00:10;17.20;1.00
54788;DHT22;59598;48.112;16.280;2023-05-07T08:02:50;17.10;1.00
54788;DHT22;59598;48.112;16.280;2023-05-07T08:05:24;16.90;1.00
54788;DHT22;59598;48.112;16.280;2023-05-07T08:07:57;16.80;1.00
54788;DHT22;59598;48.112;16.280;2023-05-07T08:10:29;16.90;1.00
54788;DHT22;59598;48.112;16.280;2023-05-07T08:13:05;16.90;1.00
54788;DHT22;59598;48.112;16.280;2023-05-07T08:15:36;17.20;1.00
54788;DHT22;59598;48.112;16.280;2023-05-07T08:18:14;17.70;1.00
54788;DHT22;59598;48.112;16.280;2023-05-07T08:20:46;17.80;1.00
54788;DHT22;59598;48.112;16.280;2023-05-07T08:23:20;17.70;1.00
54788;DHT22;59598;48.112;16.280;2023-05-07T08:25:55;17.30;1.00
54788;DHT22;59598;48.112;16.280;2023-05-07T08:28:26;16.90;1.00
54788;DHT22;59598;48.112;16.280;2023-05-07T08:30:58;16.70;1.00
54788;DHT22;59598;48.112;16.280;2023-05-07T08:33:31;16.50;1.00
54788;DHT22;59598;48.112;16.280;2023-05-07T08:36:03;16.70;1.00
54788;DHT22;59598;48.112;16.280;2023-05-07T08:38:41;16.80;1.00
54788;DHT22;59598;48.112;16.280;2023-05-07T08:41:16;16.70;1.00
54788;DHT22;59598;48.112;16.280;2023-05-07T08:43:51;16.90;1.00
54788;DHT22;59598;48.112;16.280;2023-05-07T08:46:25;17.10;1.00
54788;DHT22;59598;48.112;16.280;2023-05-07T08:49:06;17.10;1.00
54788;DHT22;59598;48.112;16.280;2023-05-07T08:51:41;17.50;1.00
54788;DHT22;59598;48.112;16.280;2023-05-07T08:54:15;17.60;1.00
54788;DHT22;59598;48.112;16.280;2023-05-07T08:56:50;18.00;1.00
54788;DHT22;59598;48.112;16.280;2023-05-07T08:59:22;18.60;1.00
54788;DHT22;59598;48.112;16.280;2023-05-07T09:01:54;19.10;1.00
54788;DHT22;59598;48.112;16.280;2023-05-07T09:04:28;19.90;1.00
54788;DHT22;59598;48.112;16.280;2023-05-07T09:06:59;20.60;99.90
54788;DHT22;59598;48.112;16.280;2023-05-07T09:09:37;19.80;1.00
54788;DHT22;59598;48.112;16.280;2023-05-07T09:12:08;19.40;1.00
54788;DHT22;59598;48.112;16.280;2023-05-07T09:14:40;20.00;1.00
54788;DHT22;59598;48.112;16.280;2023-05-07T09:17:18;19.80;1.00
54788;DHT22;59598;48.112;16.280;2023-05-07T09:19:52;19.50;1.00
54788;DHT22;59598;48.112;16.280;2023-05-07T09:22:32;19.80;1.00
54788;DHT22;59598;48.112;16.280;2023-05-07T09:25:08;20.40;99.90
54788;DHT22;59598;48.112;16.280;2023-05-07T09:27:45;20.40;99.90
54788;DHT22;59598;48.112;16.280;2023-05-07T09:30:17;19.50;99.90
54788;DHT22;59598;48.112;16.280;2023-05-07T09:32:51;20.10;1.00
54788;DHT22;59598;48.112;16.280;2023-05-07T09:35:22;20.70;1.00
54788;DHT22;59598;48.112;16.280;2023-05-07T09:37:59;20.70;99.90
54788;DHT22;59598;48.112;16.280;2023-05-07T09:40:36;20.60;1.00
54788;DHT22;59598;48.112;16.280;2023-05-07T09:43:13;21.30;1.00
54788;DHT22;59598;48.112;16.280;2023-05-07T09:45:49;20.90;99.90
54788;DHT22;59598;48.112;16.280;2023-05-07T09:48:22;21.30;1.00
54788;DHT22;59598;48.112;16.280;2023-05-07T09:50:55;20.80;99.90
54788;DHT22;59598;48.112;16.280;2023-05-07T09:53:31;20.70;1.00
54788;DHT22;59598;48.112;16.280;2023-05-07T09:56:05;21.50;1.00
54788;DHT22;59598;48.112;16.280;2023-05-07T09:58:37;21.90;1.00
54788;DHT22;59598;48.112;16.280;2023-05-07T10:01:13;22.50;1.00
54788;DHT22;59598;48.112;16.280;2023-05-07T10:03:45;22.80;1.00
54788;DHT22;59598;48.112;16.280;2023-05-07T10:06:21;22.00;99.90
54788;DHT22;59598;48.112;16.280;2023-05-07T10:08:57;22.10;1.00
54788;DHT22;59598;48.112;16.280;2023-05-07T10:11:35;22.80;32.20
54788;DHT22;59598;48.112;16.280;2023-05-07T10:14:07;23.60;99.90
54788;DHT22;59598;48.112;16.280;2023-05-07T10:16:40;23.50;99.90
54788;DHT22;59598;48.112;16.280;2023-05-07T10:19:14;23.70;1.00
54788;DHT22;59598;48.112;16.280;2023-05-07T10:21:59;24.20;99.90
54788;DHT22;59598;48.112;16.280;2023-05-07T10:24:34;24.40;99.90
54788;DHT22;59598;48.112;16.280;2023-05-07T10:27:08;22.80;61.80
54788;DHT22;59598;48.112;16.280;2023-05-07T10:30:00;22.00;99.90
54788;DHT22;59598;48.112;16.280;2023-05-07T10:32:55;22.70;1.00
54788;DHT22;59598;48.112;16.280;2023-05-07T10:35:31;23.70;99.90
54788;DHT22;59598;48.112;16.280;2023-05-07T10:38:08;25.50;1.00
54788;DHT22;59598;48.112;16.280;2023-05-07T10:40:44;25.60;99.90
54788;DHT22;59598;48.112;16.280;2023-05-07T10:43:15;25.30;1.00
54788;DHT22;59598;48.112;16.280;2023-05-07T10:46:14;26.80;99.90
54788;DHT22;59598;48.112;16.280;2023-05-07T10:51:37;27.60;1.00
54788;DHT22;59598;48.112;16.280;2023-05-07T10:56:44;27.00;99.90
54788;DHT22;59598;48.112;16.280;2023-05-07T11:02:05;26.80;99.90
54788;DHT22;59598;48.112;16.280;2023-05-07T11:04:37;27.60;99.90
54788;DHT22;59598;48.112;16.280;2023-05-07T11:07:24;28.90;99.90
54788;DHT22;59598;48.112;16.280;2023-05-07T11:10:00;28.00;11.70
54788;DHT22;59598;48.112;16.280;2023-05-07T11:15:13;28.30;1.00
54788;DHT22;59598;48.112;16.280;2023-05-07T11:17:55;27.90;99.90
54788;DHT22;59598;48.112;16.280;2023-05-07T11:26:12;27.30;1.00
54788;DHT22;59598;48.112;16.280;2023-05-07T11:28:43;26.40;1.00
54788;DHT22;59598;48.112;16.280;2023-05-07T11:31:21;25.30;1.00
54788;DHT22;59598;48.112;16.280;2023-05-07T11:33:59;24.50;99.90
54788;DHT22;59598;48.112;16.280;2023-05-07T11:36:34;23.70;1.00
54788;DHT22;59598;48.112;16.280;2023-05-07T11:39:26;23.30;99.90
54788;DHT22;59598;48.112;16.280;2023-05-07T11:42:02;23.30;91.80
54788;DHT22;59598;48.112;16.280;2023-05-07T11:44:43;23.80;1.00
54788;DHT22;59598;48.112;16.280;2023-05-07T11:47:17;23.70;1.00
54788;DHT22;59598;48.112;16.280;2023-05-07T11:49:52;22.90;33.10
54788;DHT22;59598;48.112;16.280;2023-05-07T11:52:24;22.60;80.20
54788;DHT22;59598;48.112;16.280;2023-05-07T11:55:18;22.10;99.90
54788;DHT22;59598;48.112;16.280;2023-05-07T11:57:50;22.00;99.90
54788;DHT22;59598;48.112;16.280;2023-05-07T12:00:22;22.30;99.90
54788;DHT22;59598;48.112;16.280;2023-05-07T12:02:56;22.90;99.90
54788;DHT22;59598;48.112;16.280;2023-05-07T12:05:28;23.20;99.90
54788;DHT22;59598;48.112;16.280;2023-05-07T12:08:00;23.20;99.90
54788;DHT22;59598;48.112;16.280;2023-05-07T12:10:34;22.90;1.00
54788;DHT22;59598;48.112;16.280;2023-05-07T12:13:17;22.30;99.90
54788;DHT22;59598;48.112;16.280;2023-05-07T12:15:58;22.40;99.90
54788;DHT22;59598;48.112;16.280;2023-05-07T12:18:34;22.40;99.90
54788;DHT22;59598;48.112;16.280;2023-05-07T12:21:07;22.40;99.90
54788;DHT22;59598;48.112;16.280;2023-05-07T12:23:40;23.80;99.90
54788;DHT22;59598;48.112;16.280;2023-05-07T12:26:12;24.10;99.90
54788;DHT22;59598;48.112;16.280;2023-05-07T12:28:44;23.60;1.00
54788;DHT22;59598;48.112;16.280;2023-05-07T12:31:18;24.30;99.90
54788;DHT22;59598;48.112;16.280;2023-05-07T12:33:53;24.60;99.90
54788;DHT22;59598;48.112;16.280;2023-05-07T12:36:27;24.50;99.90
54788;DHT22;59598;48.112;16.280;2023-05-07T12:39:09;22.90;1.00
54788;DHT22;59598;48.112;16.280;2023-05-07T12:41:58;21.30;99.90
54788;DHT22;59598;48.112;16.280;2023-05-07T12:44:34;21.70;99.90
54788;DHT22;59598;48.112;16.280;2023-05-07T12:47:09;22.10;99.90
54788;DHT22;59598;48.112;16.280;2023-05-07T12:49:47;22.00;99.90
54788;DHT22;59598;48.112;16.280;2023-05-07T12:52:21;22.60;99.90
54788;DHT22;59598;48.112;16.280;2023-05-07T12:54:55;21.70;99.90
54788;DHT22;59598;48.112;16.280;2023-05-07T12:57:50;21.20;99.90
54788;DHT22;59598;48.112;16.280;2023-05-07T13:00:52;21.40;99.90
54788;DHT22;59598;48.112;16.280;2023-05-07T13:03:32;20.80;99.90
54788;DHT22;59598;48.112;16.280;2023-05-07T13:06:08;20.60;99.90
54788;DHT22;59598;48.112;16.280;2023-05-07T13:08:43;20.40;1.00
54788;DHT22;59598;48.112;16.280;2023-05-07T13:11:15;20.40;1.00
54788;DHT22;59598;48.112;16.280;2023-05-07T13:13:48;20.60;1.00
54788;DHT22;59598;48.112;16.280;2023-05-07T13:16:19;20.80;99.90
54788;DHT22;59598;48.112;16.280;2023-05-07T13:18:51;20.90;99.90
54788;DHT22;59598;48.112;16.280;2023-05-07T13:21:24;21.30;1.00
54788;DHT22;59598;48.112;16.280;2023-05-07T13:23:55;21.90;99.90
54788;DHT22;59598;48.112;16.280;2023-05-07T13:26:27;22.50;99.90
54788;DHT22;59598;48.112;16.280;2023-05-07T13:28:58;22.90;99.90
54788;DHT22;59598;48.112;16.280;2023-05-07T13:31:30;24.10;99.90
54788;DHT22;59598;48.112;16.280;2023-05-07T13:34:03;23.30;99.40
54788;DHT22;59598;48.112;16.280;2023-05-07T13:36:35;22.70;99.90
54788;DHT22;59598;48.112;16.280;2023-05-07T13:39:10;22.10;99.90
54788;DHT22;59598;48.112;16.280;2023-05-07T13:41:46;21.70;99.90
54788;DHT22;59598;48.112;16.280;2023-05-07T13:44:18;21.50;99.90
54788;DHT22;59598;48.112;16.280;2023-05-07T13:46:55;21.60;99.90
54788;DHT22;59598;48.112;16.280;2023-05-07T13:49:28;21.50;99.90
54788;DHT22;59598;48.112;16.280;2023-05-07T13:52:00;21.50;99.90
54788;DHT22;59598;48.112;16.280;2023-05-07T13:54:31;22.70;99.90
54788;DHT22;59598;48.112;16.280;2023-05-07T13:57:06;23.10;99.90
54788;DHT22;59598;48.112;16.280;2023-05-07T13:59:40;22.50;99.90
54788;DHT22;59598;48.112;16.280;2023-05-07T14:02:12;22.20;99.90
54788;DHT22;59598;48.112;16.280;2023-05-07T14:04:47;21.80;99.90
54788;DHT22;59598;48.112;16.280;2023-05-07T14:07:19;21.50;99.90
54788;DHT22;59598;48.112;16.280;2023-05-07T14:09:52;21.50;43.70
54788;DHT22;59598;48.112;16.280;2023-05-07T14:12:26;20.70;99.60
54788;DHT22;59598;48.112;16.280;2023-05-07T14:14:58;20.90;99.90
54788;DHT22;59598;48.112;16.280;2023-05-07T14:17:32;20.70;99.90
54788;DHT22;59598;48.112;16.280;2023-05-07T14:20:04;20.70;99.90
54788;DHT22;59598;48.112;16.280;2023-05-07T14:22:39;21.70;99.90
54788;DHT22;59598;48.112;16.280;2023-05-07T14:25:11;21.90;99.90
54788;DHT22;59598;48.112;16.280;2023-05-07T14:27:44;21.70;99.90
54788;DHT22;59598;48.112;16.280;2023-05-07T14:30:16;21.80;99.90
54788;DHT22;59598;48.112;16.280;2023-05-07T14:32:48;21.50;99.90
54788;DHT22;59598;48.112;16.280;2023-05-07T14:35:20;21.10;99.90
54788;DHT22;59598;48.112;16.280;2023-05-07T14:37:54;20.80;99.90
54788;DHT22;59598;48.112;16.280;2023-05-07T14:40:26;20.80;99.90
54788;DHT22;59598;48.112;16.280;2023-05-07T14:42:58;21.10;99.90
54788;DHT22;59598;48.112;16.280;2023-05-07T14:45:30;21.40;99.90
54788;DHT22;59598;48.112;16.280;2023-05-07T14:48:01;21.40;99.90
54788;DHT22;59598;48.112;16.280;2023-05-07T14:50:35;21.70;99.90
54788;DHT22;59598;48.112;16.280;2023-05-07T14:53:07;21.30;99.90
54788;DHT22;59598;48.112;16.280;2023-05-07T14:55:39;20.80;99.90
54788;DHT22;59598;48.112;16.280;2023-05-07T14:58:13;21.00;97.70
54788;DHT22;59598;48.112;16.280;2023-05-07T15:00:45;20.90;99.90
54788;DHT22;59598;48.112;16.280;2023-05-07T15:03:17;21.20;99.90
54788;DHT22;59598;48.112;16.280;2023-05-07T15:05:48;20.60;99.90
54788;DHT22;59598;48.112;16.280;2023-05-07T15:08:22;20.10;99.90
54788;DHT22;59598;48.112;16.280;2023-05-07T15:10:54;19.90;99.90
54788;DHT22;59598;48.112;16.280;2023-05-07T15:13:28;19.50;1.00
54788;DHT22;59598;48.112;16.280;2023-05-07T15:16:00;19.30;99.90
54788;DHT22;59598;48.112;16.280;2023-05-07T15:18:34;19.20;1.00
54788;DHT22;59598;48.112;16.280;2023-05-07T15:21:06;19.10;1.00
54788;DHT22;59598;48.112;16.280;2023-05-07T15:23:40;18.90;1.00
54788;DHT22;59598;48.112;16.280;2023-05-07T15:26:12;19.00;1.00
54788;DHT22;59598;48.112;16.280;2023-05-07T15:28:44;19.00;1.00
54788;DHT22;59598;48.112;16.280;2023-05-07T15:31:16;18.90;1.00
54788;DHT22;59598;48.112;16.280;2023-05-07T15:33:48;18.90;1.00
54788;DHT22;59598;48.112;16.280;2023-05-07T15:36:25;18.70;1.00
54788;DHT22;59598;48.112;16.280;2023-05-07T15:38:59;18.60;1.00
54788;DHT22;59598;48.112;16.280;2023-05-07T15:41:33;18.60;1.00
54788;DHT22;59598;48.112;16.280;2023-05-07T15:44:04;18.60;1.00
54788;DHT22;59598;48.112;16.280;2023-05-07T15:46:39;18.50;1.00
54788;DHT22;59598;48.112;16.280;2023-05-07T15:49:12;18.60;1.00
54788;DHT22;59598;48.112;16.280;2023-05-07T15:51:47;18.40;1.00
54788;DHT22;59598;48.112;16.280;2023-05-07T15:54:22;18.40;1.00
54788;DHT22;59598;48.112;16.280;2023-05-07T15:56:54;18.40;1.00
54788;DHT22;59598;48.112;16.280;2023-05-07T15:59:26;18.40;1.00
54788;DHT22;59598;48.112;16.280;2023-05-07T16:01:58;18.30;1.00
54788;DHT22;59598;48.112;16.280;2023-05-07T16:04:31;18.20;1.00
54788;DHT22;59598;48.112;16.280;2023-05-07T16:07:05;18.20;1.00
54788;DHT22;59598;48.112;16.280;2023-05-07T16:09:37;18.20;1.00
54788;DHT22;59598;48.112;16.280;2023-05-07T16:12:08;18.20;1.00
54788;DHT22;59598;48.112;16.280;2023-05-07T16:14:43;18.10;1.00
54788;DHT22;59598;48.112;16.280;2023-05-07T16:17:21;18.20;1.00
54788;DHT22;59598;48.112;16.280;2023-05-07T16:19:56;18.20;1.00
54788;DHT22;59598;48.112;16.280;2023-05-07T16:22:29;18.30;1.00